Alpha, Ohio
Current Conditions -  °F | °C
As of 6:58 PM on Wednesday 22 Oct 2014 (Local Time) from KFFO Reporting Station
Overcast Overcast  
Wind Chill: 46°   Ceiling: 2200
Heat Index: 49°   Visibility: 10mi
Dew Point: 41°   Wind: 7mph
Humidity: 74%   Direction: 360°N
Pressure: 30.27"   Gusts: NA
Location:  39.71°N, 84.02°W
Report Text: KFFO 222258Z AUTO 36006KT 10SM OVC022 09/05 A3027 RMK AO2 SLP257 T00940050
Loading
Personal Weather Stations






























Interactive Weather Map New forecast layout! Learn more

10-Day Weather Forecast

Advertisements
Track Severe Weather on mobile